Terminal Aerodrome Forecast
Issued by NWS

Home | Current Version | Previous Version | Text Only | Print | Product List | Glossary On
Versions: 1 2 3 4 5 6 7 8 9 10 11 12 13 14 15 16 17 18 19 20 21 22 23 24 25 26 27 28 29 30 31 32
762
FTUS41 KBOX 261736
TAFBAF
TAF
KBAF 261736Z 2618/2718 18006KT P6SM BKN250
     FM270300 18006KT P6SM BKN050
     FM270600 18006KT 6SM -SHRA OVC030
     FM271000 20005KT 6SM -SHRA OVC008
     FM271200 24004KT 3SM BR BKN008
     FM271400 28005KT P6SM BKN010
     FM271600 30005KT P6SM SCT250=

USA.gov is the U.S. government's official web portal to all federal, state and local government web resources and services.